Time;durP1;ratioP1;P1;durP2;ratioP2;P2;SDS_P1;SDS_P2;PMS_P1;PMS_P2;Temp;Humidity;BMP_temperature;BMP_pressure;BME280_temperature;BME280_humidity;BME280_pressure;Samples;Min_cycle;Max_cycle;Signal;HPM_P1;HPM_P2
2022/05/19 00:01:04;;;;;;;3.80;1.40;;;;;;;;;;4981615;28;20023;-65
2022/05/19 00:03:33;;;;;;;3.55;1.30;;;;;;;;;;4982777;28;20023;-67
2022/05/19 00:05:59;;;;;;;3.20;1.50;;;;;;;;;;4982793;28;20031;-68
2022/05/19 00:08:26;;;;;;;2.45;1.30;;;;;;;;;;4984179;28;20038;-67
2022/05/19 00:10:55;;;;;;;2.33;1.20;;;;;;;;;;4980902;28;20023;-68
2022/05/19 00:13:21;;;;;;;3.30;1.20;;;;;;;;;;4981794;28;20025;-66
2022/05/19 00:15:47;;;;;;;2.35;1.20;;;;;;;;;;4982751;28;20070;-70
2022/05/19 00:18:12;;;;;;;4.85;1.42;;;;;;;;;;4981005;28;20479;-68
2022/05/19 00:20:38;;;;;;;4.05;1.33;;;;;;;;;;4979877;28;20023;-70
2022/05/19 00:23:03;;;;;;;2.42;1.20;;;;;;;;;;4976224;28;20444;-70
2022/05/19 00:25:30;;;;;;;3.80;1.13;;;;;;;;;;4977324;28;20110;-70
2022/05/19 00:27:56;;;;;;;4.35;1.30;;;;;;;;;;4977189;28;20034;-68
2022/05/19 00:30:21;;;;;;;5.03;1.55;;;;;;;;;;4977187;28;20130;-69
2022/05/19 00:32:48;;;;;;;2.60;1.17;;;;;;;;;;4977313;28;20058;-70
2022/05/19 00:35:14;;;;;;;1.60;0.77;;;;;;;;;;4976943;28;20408;-70
2022/05/19 00:37:40;;;;;;;10.88;1.60;;;;;;;;;;4976853;28;20027;-70
2022/05/19 00:40:06;;;;;;;3.58;1.20;;;;;;;;;;4977021;28;20105;-70
2022/05/19 00:42:43;;;;;;;2.00;1.20;;;;;;;;;;4976948;28;20079;-71
2022/05/19 00:45:16;;;;;;;4.13;1.20;;;;;;;;;;4976998;28;20468;-70
2022/05/19 00:47:42;;;;;;;2.75;1.20;;;;;;;;;;4976960;28;20034;-69
2022/05/19 00:50:25;;;;;;;5.97;1.33;;;;;;;;;;4976876;28;20038;-66
2022/05/19 00:52:57;;;;;;;3.28;1.27;;;;;;;;;;4976644;28;20026;-70
2022/05/19 00:55:30;;;;;;;2.58;1.30;;;;;;;;;;4976795;28;20027;-70
2022/05/19 00:58:35;;;;;;;4.30;1.83;;;;;;;;;;4989105;28;20030;-70
2022/05/19 01:01:02;;;;;;;3.10;1.10;;;;;;;;;;4954981;29;20547;-70
2022/05/19 01:03:33;;;;;;;3.78;1.40;;;;;;;;;;4955235;29;20118;-70
2022/05/19 01:06:03;;;;;;;3.15;1.30;;;;;;;;;;4953496;29;20505;-70
2022/05/19 01:08:29;;;;;;;2.45;1.20;;;;;;;;;;4935954;29;20046;-67
2022/05/19 01:10:57;;;;;;;3.92;1.25;;;;;;;;;;4935837;29;20040;-69
2022/05/19 01:13:23;;;;;;;3.00;1.60;;;;;;;;;;4935824;29;20494;-68
2022/05/19 01:15:52;;;;;;;4.85;1.50;;;;;;;;;;4935753;29;20035;-70
2022/05/19 01:18:18;;;;;;;2.35;1.17;;;;;;;;;;4935618;29;20040;-69
2022/05/19 01:20:46;;;;;;;3.10;1.20;;;;;;;;;;4935685;29;20064;-70
2022/05/19 01:23:14;;;;;;;3.20;1.40;;;;;;;;;;4935738;29;20039;-70
2022/05/19 01:25:40;;;;;;;3.08;1.10;;;;;;;;;;4935534;29;20046;-69
2022/05/19 01:28:06;;;;;;;2.70;1.35;;;;;;;;;;4935637;29;20024;-70
2022/05/19 01:30:33;;;;;;;2.83;1.35;;;;;;;;;;4935574;29;20141;-69
2022/05/19 01:32:59;;;;;;;2.85;1.33;;;;;;;;;;4934792;29;20058;-67
2022/05/19 01:35:25;;;;;;;7.78;1.38;;;;;;;;;;4937834;28;20491;-70
2022/05/19 01:37:51;;;;;;;2.83;1.20;;;;;;;;;;4976177;28;20383;-71
2022/05/19 01:40:58;;;;;;;7.22;1.23;;;;;;;;;;4975969;28;20027;-70
2022/05/19 01:43:35;;;;;;;3.13;1.42;;;;;;;;;;4976121;28;20027;-70
2022/05/19 01:46:14;;;;;;;3.03;1.25;;;;;;;;;;4975858;28;20038;-68
2022/05/19 01:49:12;;;;;;;2.70;1.20;;;;;;;;;;4975568;28;20023;-63
2022/05/19 01:51:53;;;;;;;2.78;1.50;;;;;;;;;;4975982;28;20034;-63
2022/05/19 01:54:43;;;;;;;2.47;1.13;;;;;;;;;;4975872;28;20034;-64
2022/05/19 01:57:15;;;;;;;2.88;1.20;;;;;;;;;;4972537;28;20121;-64
2022/05/19 02:00:08;;;;;;;2.70;1.38;;;;;;;;;;4975729;28;20054;-70
2022/05/19 02:02:48;;;;;;;3.10;1.40;;;;;;;;;;4975596;28;20054;-70
2022/05/19 02:05:36;;;;;;;3.00;1.00;;;;;;;;;;4975377;28;20380;-67
2022/05/19 02:08:05;;;;;;;2.33;1.15;;;;;;;;;;5010758;28;20287;-65
2022/05/19 02:10:36;;;;;;;4.18;1.38;;;;;;;;;;5014393;28;20451;-70
2022/05/19 02:13:04;;;;;;;5.53;1.55;;;;;;;;;;5013191;28;20025;-68
2022/05/19 02:15:34;;;;;;;3.58;1.27;;;;;;;;;;5014361;28;20030;-70
2022/05/19 02:18:00;;;;;;;3.38;1.30;;;;;;;;;;5014144;28;20418;-70
2022/05/19 02:20:28;;;;;;;4.78;1.25;;;;;;;;;;5014222;28;20157;-69
2022/05/19 02:22:55;;;;;;;2.53;1.20;;;;;;;;;;5014230;28;20028;-68
2022/05/19 02:25:23;;;;;;;5.80;1.60;;;;;;;;;;5014130;28;20037;-70
2022/05/19 02:27:55;;;;;;;3.70;1.50;;;;;;;;;;5014089;28;20064;-68
2022/05/19 02:30:27;;;;;;;2.17;1.25;;;;;;;;;;5013908;28;20030;-69
2022/05/19 02:32:54;;;;;;;7.28;1.20;;;;;;;;;;5013808;28;20058;-66
2022/05/19 02:35:20;;;;;;;2.47;1.30;;;;;;;;;;5013958;28;20030;-69
2022/05/19 02:37:45;;;;;;;3.88;1.38;;;;;;;;;;5013890;28;20105;-67
2022/05/19 02:40:15;;;;;;;3.75;1.23;;;;;;;;;;5013808;28;20543;-70
2022/05/19 02:42:41;;;;;;;8.65;1.80;;;;;;;;;;5013773;28;20462;-67
2022/05/19 02:45:07;;;;;;;3.70;1.40;;;;;;;;;;5013531;28;20108;-69
2022/05/19 02:47:33;;;;;;;2.58;1.33;;;;;;;;;;5013562;28;20021;-69
2022/05/19 02:49:58;;;;;;;2.63;1.30;;;;;;;;;;5013641;28;20431;-69
2022/05/19 02:52:24;;;;;;;3.45;1.45;;;;;;;;;;5013649;28;20487;-69
2022/05/19 02:54:49;;;;;;;2.28;1.20;;;;;;;;;;5013424;28;20022;-70
2022/05/19 02:57:15;;;;;;;3.55;1.38;;;;;;;;;;5013445;28;20026;-67
2022/05/19 02:59:42;;;;;;;4.45;1.60;;;;;;;;;;5013580;28;20095;-70
2022/05/19 03:02:08;;;;;;;2.28;1.40;;;;;;;;;;5013236;28;20356;-69
2022/05/19 03:04:34;;;;;;;2.05;1.20;;;;;;;;;;5013530;28;20038;-71
2022/05/19 03:06:59;;;;;;;7.43;1.40;;;;;;;;;;5013148;28;20050;-66
2022/05/19 03:09:25;;;;;;;4.65;1.30;;;;;;;;;;5013319;28;20037;-70
2022/05/19 03:11:51;;;;;;;3.80;1.40;;;;;;;;;;5013282;28;20034;-69
2022/05/19 03:14:16;;;;;;;2.58;1.33;;;;;;;;;;5013244;28;20044;-69
2022/05/19 03:16:42;;;;;;;3.28;1.48;;;;;;;;;;5013120;28;20475;-66
2022/05/19 03:19:09;;;;;;;3.22;1.38;;;;;;;;;;5013345;28;20037;-68
2022/05/19 03:21:35;;;;;;;3.63;1.40;;;;;;;;;;5011863;28;20034;-66
2022/05/19 03:24:01;;;;;;;3.50;1.40;;;;;;;;;;5013231;28;20101;-65
2022/05/19 03:26:26;;;;;;;2.22;1.40;;;;;;;;;;5012872;28;20213;-70
2022/05/19 03:28:52;;;;;;;5.53;1.73;;;;;;;;;;5012953;28;20030;-64
2022/05/19 03:31:17;;;;;;;3.28;1.42;;;;;;;;;;5012896;28;20041;-70
2022/05/19 03:33:43;;;;;;;2.15;1.15;;;;;;;;;;5013076;28;20117;-68
2022/05/19 03:36:10;;;;;;;4.22;1.40;;;;;;;;;;5012866;28;20046;-70
2022/05/19 03:38:36;;;;;;;9.38;1.73;;;;;;;;;;5013091;28;20034;-70
2022/05/19 03:41:03;;;;;;;2.53;0.93;;;;;;;;;;5012790;28;20033;-71
2022/05/19 03:43:28;;;;;;;3.63;1.35;;;;;;;;;;5012818;28;20029;-69
2022/05/19 03:45:54;;;;;;;2.05;1.17;;;;;;;;;;5012623;28;20026;-69
2022/05/19 03:48:19;;;;;;;3.45;1.27;;;;;;;;;;5012814;28;20022;-69
2022/05/19 03:50:46;;;;;;;6.45;1.60;;;;;;;;;;5012913;28;20430;-67
2022/05/19 03:53:12;;;;;;;3.13;1.40;;;;;;;;;;5012824;28;20022;-70
2022/05/19 03:55:39;;;;;;;2.30;1.40;;;;;;;;;;5012520;28;20030;-68
2022/05/19 03:58:05;;;;;;;3.75;1.45;;;;;;;;;;5010778;28;20030;-70
2022/05/19 04:00:32;;;;;;;2.97;1.35;;;;;;;;;;5012514;28;20409;-64
2022/05/19 04:02:58;;;;;;;5.68;1.25;;;;;;;;;;5012759;28;20105;-70
2022/05/19 04:05:24;;;;;;;2.63;1.40;;;;;;;;;;5012740;28;20069;-65
2022/05/19 04:07:50;;;;;;;5.30;1.45;;;;;;;;;;5012545;28;20046;-63
2022/05/19 04:10:15;;;;;;;3.58;1.55;;;;;;;;;;5012506;28;20088;-68
2022/05/19 04:12:43;;;;;;;3.55;1.63;;;;;;;;;;5012561;28;20118;-67
2022/05/19 04:15:10;;;;;;;4.40;1.55;;;;;;;;;;5012210;28;20081;-66
2022/05/19 04:17:35;;;;;;;5.65;1.52;;;;;;;;;;5012573;28;20494;-69
2022/05/19 04:20:04;;;;;;;4.47;1.55;;;;;;;;;;5012560;28;20038;-68
2022/05/19 04:22:29;;;;;;;2.95;1.65;;;;;;;;;;5012406;28;20432;-69
2022/05/19 04:24:55;;;;;;;2.92;1.67;;;;;;;;;;5012359;28;20018;-68
2022/05/19 04:27:21;;;;;;;3.20;1.42;;;;;;;;;;5012608;28;20022;-70
2022/05/19 04:29:49;;;;;;;2.55;1.23;;;;;;;;;;5012251;28;20034;-70
2022/05/19 04:32:16;;;;;;;5.15;1.40;;;;;;;;;;5011097;28;20503;-70
2022/05/19 04:34:42;;;;;;;4.95;1.77;;;;;;;;;;5012378;28;20030;-69
2022/05/19 04:37:08;;;;;;;5.43;1.33;;;;;;;;;;5012295;28;20053;-70
2022/05/19 04:39:34;;;;;;;3.75;1.30;;;;;;;;;;5012541;28;20100;-70
2022/05/19 04:41:59;;;;;;;5.40;1.70;;;;;;;;;;5012259;28;20467;-69
2022/05/19 04:44:25;;;;;;;8.65;1.85;;;;;;;;;;5012020;28;20032;-71
2022/05/19 04:46:50;;;;;;;3.65;1.45;;;;;;;;;;5012310;28;20028;-69
2022/05/19 04:49:16;;;;;;;2.30;1.20;;;;;;;;;;5012384;28;20510;-70
2022/05/19 04:51:41;;;;;;;3.05;1.40;;;;;;;;;;5012234;28;20145;-70
2022/05/19 04:54:07;;;;;;;2.88;1.48;;;;;;;;;;5012319;28;20030;-70
2022/05/19 04:56:33;;;;;;;3.42;1.50;;;;;;;;;;5011852;28;20467;-71
2022/05/19 04:58:58;;;;;;;5.00;1.60;;;;;;;;;;5011747;28;20048;-69
2022/05/19 05:01:23;;;;;;;5.38;1.50;;;;;;;;;;5012140;28;20033;-71
2022/05/19 05:03:49;;;;;;;2.90;1.40;;;;;;;;;;5012284;28;20076;-69
2022/05/19 05:06:14;;;;;;;4.22;1.60;;;;;;;;;;5011882;28;20038;-70
2022/05/19 05:08:40;;;;;;;4.88;1.60;;;;;;;;;;5014197;28;20033;-71
2022/05/19 05:11:05;;;;;;;2.95;1.38;;;;;;;;;;5015610;28;20032;-68
2022/05/19 05:13:31;;;;;;;5.97;1.40;;;;;;;;;;5015502;28;20509;-71
2022/05/19 05:15:58;;;;;;;2.70;1.48;;;;;;;;;;5015430;28;20030;-70
2022/05/19 05:18:24;;;;;;;4.50;1.60;;;;;;;;;;5015615;28;20526;-70
2022/05/19 05:20:50;;;;;;;2.13;1.35;;;;;;;;;;5015667;28;20033;-69
2022/05/19 05:23:15;;;;;;;3.63;1.60;;;;;;;;;;5015566;28;20141;-70
2022/05/19 05:25:41;;;;;;;3.50;1.50;;;;;;;;;;5015170;28;20021;-70
2022/05/19 05:28:06;;;;;;;4.35;1.67;;;;;;;;;;5015070;28;20033;-69
2022/05/19 05:30:32;;;;;;;6.18;1.75;;;;;;;;;;5015438;28;20029;-67
2022/05/19 05:33:09;;;;;;;4.20;1.85;;;;;;;;;;5015227;28;20471;-72
2022/05/19 05:35:35;;;;;;;4.75;1.77;;;;;;;;;;5015265;28;20486;-70
2022/05/19 05:38:01;;;;;;;2.70;1.40;;;;;;;;;;5015062;28;20030;-71
2022/05/19 05:40:27;;;;;;;6.78;1.77;;;;;;;;;;5014720;28;20033;-66
2022/05/19 05:42:52;;;;;;;6.32;1.60;;;;;;;;;;5013561;28;20029;-69
2022/05/19 05:45:18;;;;;;;3.35;1.83;;;;;;;;;;5015044;28;20027;-70
2022/05/19 05:47:43;;;;;;;6.53;1.80;;;;;;;;;;5014856;28;20447;-71
2022/05/19 05:50:09;;;;;;;5.07;1.70;;;;;;;;;;5014852;28;20025;-67
2022/05/19 05:52:35;;;;;;;4.80;1.80;;;;;;;;;;5014910;28;20145;-67
2022/05/19 05:55:01;;;;;;;4.90;1.65;;;;;;;;;;5014506;28;20033;-70
2022/05/19 05:57:29;;;;;;;7.38;1.95;;;;;;;;;;5014520;28;20038;-68
2022/05/19 05:59:55;;;;;;;13.35;1.88;;;;;;;;;;5014569;28;20109;-66
2022/05/19 06:02:21;;;;;;;9.15;2.35;;;;;;;;;;5014700;28;20034;-71
2022/05/19 06:04:47;;;;;;;5.40;2.00;;;;;;;;;;5014683;28;20431;-69
2022/05/19 06:07:13;;;;;;;9.20;2.00;;;;;;;;;;5014152;28;20081;-64
2022/05/19 06:09:39;;;;;;;9.70;2.25;;;;;;;;;;5014442;28;20040;-64
2022/05/19 06:12:05;;;;;;;13.45;2.78;;;;;;;;;;5014464;28;20105;-64
2022/05/19 06:14:31;;;;;;;13.30;2.33;;;;;;;;;;5014425;28;20026;-64
2022/05/19 06:16:56;;;;;;;7.30;1.98;;;;;;;;;;5014384;28;20088;-70
2022/05/19 06:19:22;;;;;;;10.63;2.20;;;;;;;;;;5013699;28;20064;-64
2022/05/19 06:21:48;;;;;;;8.25;2.00;;;;;;;;;;5014349;28;20040;-65
2022/05/19 06:24:14;;;;;;;5.85;2.10;;;;;;;;;;5013882;28;20053;-63
2022/05/19 06:26:40;;;;;;;9.82;2.63;;;;;;;;;;5014009;28;20032;-64
2022/05/19 06:29:10;;;;;;;8.95;2.13;;;;;;;;;;5014035;28;20112;-65
2022/05/19 06:31:36;;;;;;;11.52;2.00;;;;;;;;;;5012729;28;20479;-64
2022/05/19 06:34:01;;;;;;;6.10;2.30;;;;;;;;;;5014109;28;20100;-64
2022/05/19 06:36:27;;;;;;;10.85;2.03;;;;;;;;;;5014053;28;20018;-64
2022/05/19 06:38:53;;;;;;;12.35;1.98;;;;;;;;;;5013745;28;20403;-64
2022/05/19 06:44:04;;;;;;;9.68;1.92;;;;;;;;;;5013993;28;20064;-64
2022/05/19 06:46:29;;;;;;;17.85;2.50;;;;;;;;;;5013772;28;20058;-64
2022/05/19 06:48:55;;;;;;;7.15;2.10;;;;;;;;;;5013377;28;20064;-65
2022/05/19 06:51:20;;;;;;;7.90;2.22;;;;;;;;;;5013464;28;20026;-64
2022/05/19 06:53:46;;;;;;;5.57;2.33;;;;;;;;;;5013463;28;20018;-65
2022/05/19 06:56:12;;;;;;;7.72;1.98;;;;;;;;;;5013522;28;20030;-64
2022/05/19 06:58:38;;;;;;;5.85;1.88;;;;;;;;;;5013579;28;20040;-63
2022/05/19 07:01:04;;;;;;;16.33;2.00;;;;;;;;;;5013419;28;20030;-63
2022/05/19 07:03:30;;;;;;;9.07;2.05;;;;;;;;;;5013544;28;20040;-63
2022/05/19 07:05:55;;;;;;;6.35;2.35;;;;;;;;;;5013119;28;20026;-62
2022/05/19 07:08:21;;;;;;;7.53;2.25;;;;;;;;;;5012904;28;20434;-65
2022/05/19 07:10:46;;;;;;;8.63;2.35;;;;;;;;;;5013555;28;20030;-64
2022/05/19 07:13:12;;;;;;;11.27;2.92;;;;;;;;;;5013337;28;20017;-69
2022/05/19 07:15:38;;;;;;;7.95;2.50;;;;;;;;;;5013283;28;20061;-68
2022/05/19 07:18:04;;;;;;;7.97;2.35;;;;;;;;;;5013286;28;20525;-69
2022/05/19 07:20:44;;;;;;;5.30;2.50;;;;;;;;;;5013403;28;20101;-69
2022/05/19 07:23:25;;;;;;;4.00;2.00;;;;;;;;;;5012924;28;20021;-68
2022/05/19 07:25:51;;;;;;;14.07;2.72;;;;;;;;;;5013116;28;20021;-68
2022/05/19 07:28:21;;;;;;;4.35;2.40;;;;;;;;;;5012897;28;20112;-64
2022/05/19 07:30:47;;;;;;;6.63;2.55;;;;;;;;;;5012525;28;20026;-63
2022/05/19 07:33:14;;;;;;;6.95;2.28;;;;;;;;;;5012557;28;20361;-68
2022/05/19 07:35:41;;;;;;;6.97;2.58;;;;;;;;;;5012785;28;20087;-66
2022/05/19 07:38:06;;;;;;;12.05;2.45;;;;;;;;;;5012697;28;20030;-66
2022/05/19 07:40:32;;;;;;;5.68;2.70;;;;;;;;;;4999323;28;20160;-65
2022/05/19 07:43:35;;;;;;;5.32;2.15;;;;;;;;;;5003197;28;20056;-65
2022/05/19 07:45:43;;;;;;;7.78;2.13;;;;;;;;;;4986854;28;20026;-64
2022/05/19 07:48:12;;;;;;;4.95;2.10;;;;;;;;;;4998897;28;20610;-63
2022/05/19 07:50:37;;;;;;;7.28;2.50;;;;;;;;;;4999455;28;20069;-66
2022/05/19 07:53:03;;;;;;;4.18;2.30;;;;;;;;;;5001857;28;20481;-66
2022/05/19 07:55:28;;;;;;;8.25;2.35;;;;;;;;;;5002899;28;20018;-65
2022/05/19 07:57:54;;;;;;;4.40;2.17;;;;;;;;;;5001022;28;20336;-64
2022/05/19 08:00:20;;;;;;;6.85;2.40;;;;;;;;;;5002322;28;20065;-67
2022/05/19 08:02:46;;;;;;;6.45;2.50;;;;;;;;;;5002411;28;20460;-64
2022/05/19 08:05:12;;;;;;;9.95;2.58;;;;;;;;;;5001047;28;20026;-65
2022/05/19 08:07:37;;;;;;;10.55;3.03;;;;;;;;;;5003246;28;20459;-63
2022/05/19 08:10:21;;;;;;;11.10;3.00;;;;;;;;;;5011791;28;20026;-64
2022/05/19 08:15:35;;;;;;;6.25;2.72;;;;;;;;;;5012163;28;20029;-68
2022/05/19 08:18:02;;;;;;;9.73;2.60;;;;;;;;;;5012321;28;20109;-63
2022/05/19 08:20:28;;;;;;;7.57;2.65;;;;;;;;;;5011912;28;20026;-63
2022/05/19 08:22:54;;;;;;;4.40;2.17;;;;;;;;;;5012308;28;20446;-65
2022/05/19 08:25:24;;;;;;;8.50;2.88;;;;;;;;;;5012248;28;20447;-69
2022/05/19 08:27:50;;;;;;;2.63;2.10;;;;;;;;;;5012385;28;20479;-68
2022/05/19 08:30:15;;;;;;;14.05;2.72;;;;;;;;;;5011886;28;20041;-69
2022/05/19 08:32:42;;;;;;;7.18;2.55;;;;;;;;;;5012265;28;20032;-69
2022/05/19 08:35:08;;;;;;;5.30;2.58;;;;;;;;;;5011555;28;20468;-69
2022/05/19 08:37:34;;;;;;;8.88;2.60;;;;;;;;;;5011537;28;20057;-69
2022/05/19 08:40:00;;;;;;;4.60;2.30;;;;;;;;;;4992467;28;20080;-70
2022/05/19 08:42:29;;;;;;;8.07;2.60;;;;;;;;;;4992492;28;20106;-69
2022/05/19 08:44:58;;;;;;;10.10;2.50;;;;;;;;;;4995833;28;20146;-69
2022/05/19 08:47:27;;;;;;;6.25;2.50;;;;;;;;;;4995824;28;20038;-69
2022/05/19 08:50:06;;;;;;;15.10;2.90;;;;;;;;;;4995862;28;20042;-70
2022/05/19 08:52:41;;;;;;;10.00;2.80;;;;;;;;;;4996043;28;20030;-69
2022/05/19 08:55:13;;;;;;;5.13;2.58;;;;;;;;;;4995734;28;20464;-69
2022/05/19 08:58:12;;;;;;;3.67;2.35;;;;;;;;;;4995893;28;20030;-70
2022/05/19 09:00:40;;;;;;;;;;;;;;;;;;4996382;28;20053;-67
2022/05/19 09:03:09;;;;;;;4.35;2.40;;;;;;;;;;4993832;28;19957;-68
2022/05/19 09:05:53;;;;;;;9.27;2.27;;;;;;;;;;5008710;28;20129;-69
2022/05/19 09:08:34;;;;;;;7.13;2.55;;;;;;;;;;4983254;28;20035;-68
2022/05/19 09:11:07;;;;;;;7.75;2.70;;;;;;;;;;4995878;28;20088;-69
2022/05/19 09:13:42;;;;;;;8.18;2.47;;;;;;;;;;4995904;28;20391;-66
2022/05/19 09:16:19;;;;;;;7.90;2.50;;;;;;;;;;4995691;28;20360;-68
2022/05/19 09:18:50;;;;;;;8.27;3.05;;;;;;;;;;4995587;28;20387;-68
2022/05/19 09:21:16;;;;;;;11.05;2.53;;;;;;;;;;4995459;28;20340;-69
2022/05/19 09:23:42;;;;;;;6.53;2.60;;;;;;;;;;4995778;28;20033;-68
2022/05/19 09:26:33;;;;;;;16.65;2.80;;;;;;;;;;4995400;28;20030;-68
2022/05/19 09:29:03;;;;;;;8.00;2.88;;;;;;;;;;4995409;28;20080;-68
2022/05/19 09:31:41;;;;;;;7.00;2.40;;;;;;;;;;4995336;28;20025;-69
2022/05/19 09:34:08;;;;;;;6.03;2.40;;;;;;;;;;4994617;28;20030;-69
2022/05/19 09:36:40;;;;;;;6.85;2.50;;;;;;;;;;4994653;28;20027;-68
2022/05/19 09:39:13;;;;;;;9.00;2.50;;;;;;;;;;4993954;28;20040;-68
2022/05/19 09:41:46;;;;;;;7.05;2.92;;;;;;;;;;4995033;28;20027;-67
2022/05/19 09:44:15;;;;;;;8.77;2.80;;;;;;;;;;4985158;28;20054;-67
2022/05/19 09:46:50;;;;;;;4.95;2.45;;;;;;;;;;4991815;28;20034;-68
2022/05/19 09:49:32;;;;;;;11.93;3.13;;;;;;;;;;4994411;28;20046;-67
2022/05/19 09:52:03;;;;;;;6.35;2.50;;;;;;;;;;4995328;28;20026;-64
2022/05/19 09:54:32;;;;;;;9.13;2.58;;;;;;;;;;4993925;28;20066;-66
2022/05/19 09:57:16;;;;;;;9.75;2.47;;;;;;;;;;4994414;28;20030;-68
2022/05/19 09:59:50;;;;;;;7.53;2.88;;;;;;;;;;4994803;28;20503;-64
2022/05/19 10:02:24;;;;;;;9.25;2.65;;;;;;;;;;4994687;28;20058;-63
2022/05/19 10:04:55;;;;;;;6.05;2.47;;;;;;;;;;4994778;28;20089;-64
2022/05/19 10:07:27;;;;;;;12.70;2.58;;;;;;;;;;5006711;28;20137;-68
2022/05/19 10:09:56;;;;;;;14.50;2.50;;;;;;;;;;5014245;28;20438;-67
2022/05/19 10:12:32;;;;;;;6.40;2.50;;;;;;;;;;5014118;28;20414;-68
2022/05/19 10:15:04;;;;;;;8.93;2.70;;;;;;;;;;5014221;28;20479;-64
2022/05/19 10:17:44;;;;;;;5.50;2.35;;;;;;;;;;5014009;28;20038;-64
2022/05/19 10:20:21;;;;;;;3.83;2.13;;;;;;;;;;5014120;28;20056;-66
2022/05/19 10:23:01;;;;;;;6.65;2.53;;;;;;;;;;5013863;28;20053;-66
2022/05/19 10:25:45;;;;;;;4.00;2.30;;;;;;;;;;5012624;28;20403;-65
2022/05/19 10:31:53;;;;;;;5.65;2.33;;;;;;;;;;5013670;28;20033;-63
2022/05/19 10:34:36;;;;;;;6.75;2.50;;;;;;;;;;4994050;28;20035;-64
2022/05/19 10:37:21;;;;;;;8.25;2.90;;;;;;;;;;4994194;28;20076;-63
2022/05/19 10:39:55;;;;;;;10.23;2.33;;;;;;;;;;4994027;28;20030;-63
2022/05/19 10:42:21;;;;;;;3.92;2.25;;;;;;;;;;4993989;28;20072;-63
2022/05/19 10:45:39;;;;;;;11.07;3.00;;;;;;;;;;4994047;28;20101;-63
2022/05/19 10:48:28;;;;;;;6.93;2.60;;;;;;;;;;4952936;29;20552;-68
2022/05/19 10:51:09;;;;;;;5.10;2.28;;;;;;;;;;4952779;29;20043;-63
2022/05/19 10:53:41;;;;;;;8.70;3.15;;;;;;;;;;4950885;28;20057;-62
2022/05/19 10:56:31;;;;;;;6.18;2.63;;;;;;;;;;4952606;28;20035;-64
2022/05/19 10:59:12;;;;;;;5.90;2.47;;;;;;;;;;4952663;29;20042;-63
2022/05/19 11:02:08;;;;;;;7.18;2.60;;;;;;;;;;4952571;29;20511;-64
2022/05/19 11:04:40;;;;;;;4.82;2.08;;;;;;;;;;4952813;29;20119;-64
2022/05/19 11:07:10;;;;;;;10.07;2.38;;;;;;;;;;4962208;28;20109;-65
2022/05/19 11:10:04;;;;;;;8.27;2.70;;;;;;;;;;4971452;28;20097;-64
2022/05/19 11:12:53;;;;;;;7.93;2.58;;;;;;;;;;4971848;28;20039;-63
2022/05/19 11:15:56;;;;;;;5.32;2.15;;;;;;;;;;4971510;28;20043;-68
2022/05/19 11:18:43;;;;;;;10.60;2.72;;;;;;;;;;4968648;28;20053;-67
2022/05/19 11:21:27;;;;;;;4.82;2.40;;;;;;;;;;4955657;28;20113;-63
2022/05/19 11:24:01;;;;;;;11.50;2.95;;;;;;;;;;4995671;28;20038;-67
2022/05/19 11:26:38;;;;;;;9.40;2.20;;;;;;;;;;5012586;28;20030;-67
2022/05/19 11:29:06;;;;;;;6.85;2.05;;;;;;;;;;5012562;28;20036;-62
2022/05/19 11:31:50;;;;;;;4.05;2.20;;;;;;;;;;5009142;28;20033;-67
2022/05/19 11:34:28;;;;;;;9.60;2.50;;;;;;;;;;4990082;28;20034;-64
2022/05/19 11:37:11;;;;;;;8.15;2.40;;;;;;;;;;4993032;28;20031;-64
2022/05/19 11:39:56;;;;;;;6.95;2.53;;;;;;;;;;4992869;28;20031;-63
2022/05/19 11:42:58;;;;;;;6.25;2.33;;;;;;;;;;4992809;28;20075;-68
2022/05/19 11:45:53;;;;;;;9.65;2.60;;;;;;;;;;4992610;28;20022;-63
2022/05/19 11:57:30;;;;;;;5.70;2.20;;;;;;;;;;4992715;28;20389;-62
2022/05/19 11:59:58;;;;;;;6.15;2.20;;;;;;;;;;4992518;28;20072;-61
2022/05/19 12:02:59;;;;;;;5.53;1.98;;;;;;;;;;4992674;28;20092;-61
2022/05/19 12:05:33;;;;;;;7.43;2.38;;;;;;;;;;4968015;28;20086;-63
2022/05/19 12:08:10;;;;;;;4.10;2.03;;;;;;;;;;4952088;28;20078;-63
2022/05/19 12:10:39;;;;;;;6.90;2.40;;;;;;;;;;4950356;28;20143;-62
2022/05/19 12:13:08;;;;;;;4.28;2.25;;;;;;;;;;4951174;28;20037;-64
2022/05/19 12:15:33;;;;;;;4.65;2.10;;;;;;;;;;4951507;29;20067;-62
2022/05/19 12:18:09;;;;;;;5.72;2.35;;;;;;;;;;4952722;28;20619;-63
2022/05/19 12:20:52;;;;;;;9.43;2.47;;;;;;;;;;4955331;29;20078;-63
2022/05/19 12:23:26;;;;;;;3.70;2.10;;;;;;;;;;4955404;29;20047;-65
2022/05/19 12:25:55;;;;;;;5.47;2.10;;;;;;;;;;4955083;29;20513;-63
2022/05/19 12:28:27;;;;;;;;;;;;;;;;;;4954391;29;20039;-62
2022/05/19 12:34:00;;;;;;;7.20;2.05;;;;;;;;;;4955178;29;20456;-61
2022/05/19 12:36:25;;;;;;;4.47;2.05;;;;;;;;;;4955617;28;20162;-62
2022/05/19 12:38:52;;;;;;;6.43;2.30;;;;;;;;;;4961256;28;20165;-62
2022/05/19 12:41:23;;;;;;;7.88;2.10;;;;;;;;;;4958075;28;20035;-62
2022/05/19 12:43:51;;;;;;;10.00;2.25;;;;;;;;;;4976536;28;20499;-64
2022/05/19 12:46:44;;;;;;;3.70;1.90;;;;;;;;;;4977078;28;20107;-65
2022/05/19 12:49:23;;;;;;;7.00;2.10;;;;;;;;;;4974485;28;20134;-64
2022/05/19 12:52:18;;;;;;;6.68;2.15;;;;;;;;;;4974244;28;20503;-63
2022/05/19 12:55:22;;;;;;;5.72;1.88;;;;;;;;;;4973449;28;20043;-64
2022/05/19 12:57:48;;;;;;;4.15;2.03;;;;;;;;;;4974056;28;20395;-64
2022/05/19 13:00:23;;;;;;;10.35;2.45;;;;;;;;;;4974173;28;20153;-66
2022/05/19 13:03:17;;;;;;;6.38;1.95;;;;;;;;;;4974118;28;20031;-68
2022/05/19 13:05:55;;;;;;;4.20;2.17;;;;;;;;;;4974077;28;20065;-63
2022/05/19 13:08:32;;;;;;;4.60;2.10;;;;;;;;;;4954775;29;20141;-67
2022/05/19 13:11:03;;;;;;;12.50;2.50;;;;;;;;;;4954594;29;20190;-64
2022/05/19 13:13:38;;;;;;;7.78;2.30;;;;;;;;;;4954629;28;20396;-63
2022/05/19 13:16:24;;;;;;;6.20;2.30;;;;;;;;;;4952329;28;20109;-63
2022/05/19 13:18:53;;;;;;;4.47;2.00;;;;;;;;;;4954369;28;20106;-65
2022/05/19 13:21:24;;;;;;;7.82;2.92;;;;;;;;;;4954400;29;20054;-63
2022/05/19 13:23:51;;;;;;;5.22;2.20;;;;;;;;;;4954172;29;20057;-64
2022/05/19 13:26:24;;;;;;;8.65;2.30;;;;;;;;;;4966441;28;20089;-63
2022/05/19 13:31:57;;;;;;;3.70;2.03;;;;;;;;;;4976352;28;20030;-64
2022/05/19 13:34:23;;;;;;;6.70;1.98;;;;;;;;;;4975743;28;20372;-64
2022/05/19 13:36:59;;;;;;;6.28;3.15;;;;;;;;;;4975740;28;20045;-63
2022/05/19 13:39:27;;;;;;;5.82;2.20;;;;;;;;;;4975275;28;20495;-64
2022/05/19 13:41:58;;;;;;;5.18;2.38;;;;;;;;;;4975734;28;20031;-65
2022/05/19 13:44:42;;;;;;;5.25;1.98;;;;;;;;;;4975627;28;20508;-65
2022/05/19 13:47:22;;;;;;;3.50;2.10;;;;;;;;;;4975702;28;20041;-65
2022/05/19 13:49:59;;;;;;;3.72;2.30;;;;;;;;;;4981233;28;20030;-64
2022/05/19 13:52:30;;;;;;;5.72;2.00;;;;;;;;;;4991454;28;20117;-64
2022/05/19 13:54:56;;;;;;;5.40;2.42;;;;;;;;;;4994315;28;20026;-65
2022/05/19 13:57:24;;;;;;;7.32;2.15;;;;;;;;;;4994975;28;20149;-64
2022/05/19 13:59:53;;;;;;;10.32;2.13;;;;;;;;;;4994770;28;20057;-65
2022/05/19 14:02:31;;;;;;;4.57;2.22;;;;;;;;;;4994438;28;20066;-63
2022/05/19 14:04:58;;;;;;;4.25;1.95;;;;;;;;;;4994629;28;20026;-64
2022/05/19 14:07:25;;;;;;;7.80;2.30;;;;;;;;;;4994406;28;20046;-68
2022/05/19 14:10:09;;;;;;;5.95;2.10;;;;;;;;;;4994527;28;20046;-63
2022/05/19 14:12:35;;;;;;;3.72;2.03;;;;;;;;;;4994459;28;20034;-63
2022/05/19 14:15:07;;;;;;;5.43;2.10;;;;;;;;;;4986055;28;20026;-65
2022/05/19 14:17:44;;;;;;;5.53;2.17;;;;;;;;;;4974790;28;20038;-62
2022/05/19 14:20:17;;;;;;;5.15;2.20;;;;;;;;;;4973415;28;20023;-62
2022/05/19 14:22:43;;;;;;;8.27;2.30;;;;;;;;;;4975006;28;20081;-66
2022/05/19 14:25:12;;;;;;;5.57;2.13;;;;;;;;;;4974815;28;20030;-64
2022/05/19 14:27:39;;;;;;;9.50;2.40;;;;;;;;;;4975212;28;20051;-72
2022/05/19 14:30:14;;;;;;;6.05;2.17;;;;;;;;;;4975051;28;20110;-71
2022/05/19 14:32:51;;;;;;;4.25;1.92;;;;;;;;;;4975090;28;20035;-71
2022/05/19 14:35:22;;;;;;;3.25;2.10;;;;;;;;;;4974524;28;20019;-63
2022/05/19 14:37:52;;;;;;;3.90;2.22;;;;;;;;;;4972977;28;20054;-66
2022/05/19 14:43:15;;;;;;;11.75;2.50;;;;;;;;;;4975229;28;20085;-72
2022/05/19 14:45:51;;;;;;;4.97;2.05;;;;;;;;;;4974962;28;20039;-63
2022/05/19 14:48:35;;;;;;;3.45;2.00;;;;;;;;;;4974823;28;20109;-66
2022/05/19 14:51:02;;;;;;;5.47;2.00;;;;;;;;;;4974559;28;20027;-69
2022/05/19 14:53:29;;;;;;;7.53;2.70;;;;;;;;;;4974265;28;20027;-63
2022/05/19 14:55:59;;;;;;;5.57;2.28;;;;;;;;;;4974699;28;20022;-66
2022/05/19 14:58:34;;;;;;;5.28;2.20;;;;;;;;;;4974688;28;20023;-69
2022/05/19 15:00:59;;;;;;;3.90;2.22;;;;;;;;;;4974533;28;20027;-65
2022/05/19 15:03:25;;;;;;;3.67;2.30;;;;;;;;;;4974507;28;20354;-63
2022/05/19 15:05:52;;;;;;;7.55;1.75;;;;;;;;;;4974574;28;20059;-65
2022/05/19 15:08:18;;;;;;;3.65;2.20;;;;;;;;;;5013382;28;20029;-68
2022/05/19 15:10:44;;;;;;;3.90;2.35;;;;;;;;;;5013304;28;20034;-63
2022/05/19 15:13:11;;;;;;;6.47;1.98;;;;;;;;;;5013335;28;20069;-64
2022/05/19 15:15:38;;;;;;;10.88;2.40;;;;;;;;;;5028659;28;20034;-67
2022/05/19 15:18:07;;;;;;;7.13;2.25;;;;;;;;;;5013141;28;20067;-65
2022/05/19 15:20:34;;;;;;;11.63;2.42;;;;;;;;;;5013216;28;20034;-65
2022/05/19 15:23:01;;;;;;;7.00;2.22;;;;;;;;;;5012915;28;20026;-70
2022/05/19 15:25:29;;;;;;;4.78;2.58;;;;;;;;;;5013141;28;20030;-62
2022/05/19 15:27:55;;;;;;;6.60;2.40;;;;;;;;;;5013121;28;20371;-63
2022/05/19 15:30:24;;;;;;;11.65;2.55;;;;;;;;;;5012786;28;20033;-65
2022/05/19 15:32:50;;;;;;;10.85;2.47;;;;;;;;;;5012834;28;20114;-62